createdAt,value
2022-12-13T00:01:42.435Z,-3.09
2022-12-13T00:04:10.492Z,-3.12
2022-12-13T00:06:37.918Z,-3.22
2022-12-13T00:09:05.474Z,-3.09
2022-12-13T00:11:32.676Z,-3.21
2022-12-13T00:13:59.382Z,-3.19
2022-12-13T00:16:27.190Z,-3.19
2022-12-13T00:18:57.147Z,-3.22
2022-12-13T00:21:32.894Z,-3.19
2022-12-13T00:24:00.866Z,-3.08
2022-12-13T00:26:31.027Z,-3.22
2022-12-13T00:29:01.660Z,-3.28
2022-12-13T00:34:19.108Z,-3.06
2022-12-13T00:36:45.877Z,-3.21
2022-12-13T00:39:14.206Z,-3.38
2022-12-13T00:41:41.807Z,-3.54
2022-12-13T00:44:10.639Z,-3.39
2022-12-13T00:46:38.040Z,-3.43
2022-12-13T00:49:05.853Z,-3.21
2022-12-13T00:54:10.368Z,-3.43
2022-12-13T00:56:38.225Z,-3.24
2022-12-13T00:59:05.191Z,-3.12
2022-12-13T01:01:33.963Z,-3.33
2022-12-13T01:04:02.063Z,-3.31
2022-12-13T01:06:40.652Z,-3.48
2022-12-13T01:09:15.292Z,-3.40
2022-12-13T01:11:41.986Z,-3.30
2022-12-13T01:16:48.840Z,-3.26
2022-12-13T01:19:15.591Z,-3.50
2022-12-13T01:21:42.370Z,-3.62
2022-12-13T01:24:14.354Z,-3.62
2022-12-13T01:26:41.058Z,-3.72
2022-12-13T01:29:09.123Z,-3.78
2022-12-13T01:31:37.614Z,-3.66
2022-12-13T01:36:52.931Z,-3.62
2022-12-13T01:39:27.030Z,-3.75
2022-12-13T01:42:00.154Z,-3.44
2022-12-13T01:45:04.711Z,-3.51
2022-12-13T01:47:40.978Z,-3.45
2022-12-13T01:50:12.364Z,-3.61
2022-12-13T01:52:40.738Z,-3.62
2022-12-13T01:55:09.391Z,-3.62
2022-12-13T01:57:45.415Z,-3.59
2022-12-13T02:00:13.198Z,-3.51
2022-12-13T02:02:40.192Z,-3.70
2022-12-13T02:05:25.602Z,-3.56
2022-12-13T02:07:53.678Z,-3.70
2022-12-13T02:10:20.650Z,-3.53
2022-12-13T02:12:47.531Z,-3.42
2022-12-13T02:15:16.852Z,-3.49
2022-12-13T02:17:46.505Z,-3.61
2022-12-13T02:20:31.160Z,-3.73
2022-12-13T02:23:19.568Z,-3.53
2022-12-13T02:26:07.808Z,-3.46
2022-12-13T02:28:37.343Z,-3.41
2022-12-13T02:31:09.180Z,-3.51
2022-12-13T02:36:35.913Z,-3.49
2022-12-13T02:41:50.094Z,-3.76
2022-12-13T02:44:40.675Z,-3.51
2022-12-13T02:47:22.289Z,-3.38
2022-12-13T02:52:33.094Z,-3.90
2022-12-13T02:57:41.069Z,-3.87
2022-12-13T03:00:11.166Z,-3.65
2022-12-13T03:06:05.776Z,-3.79
2022-12-13T03:08:41.999Z,-3.79
2022-12-13T03:11:13.819Z,-4.09
2022-12-13T03:14:07.850Z,-4.32
2022-12-13T03:16:41.481Z,-4.42
2022-12-13T03:19:11.366Z,-4.62
2022-12-13T03:21:49.319Z,-4.59
2022-12-13T03:24:21.597Z,-4.51
2022-12-13T03:26:51.107Z,-4.07
2022-12-13T03:29:24.410Z,-4.32
2022-12-13T03:31:53.300Z,-4.27
2022-12-13T03:34:22.406Z,-4.29
2022-12-13T03:36:50.478Z,-4.40
2022-12-13T03:39:17.314Z,-4.34
2022-12-13T03:41:44.087Z,-4.40
2022-12-13T03:44:10.826Z,-4.49
2022-12-13T03:46:37.670Z,-4.41
2022-12-13T03:49:04.364Z,-3.98
2022-12-13T03:51:31.023Z,-4.25
2022-12-13T03:53:57.676Z,-4.50
2022-12-13T03:56:24.590Z,-4.38
2022-12-13T03:58:51.191Z,-4.56
2022-12-13T04:01:18.567Z,-4.44
2022-12-13T04:03:47.465Z,-4.14
2022-12-13T04:06:22.407Z,-4.38
2022-12-13T04:08:51.542Z,-4.00
2022-12-13T04:11:43.007Z,-4.39
2022-12-13T04:14:12.025Z,-4.19
2022-12-13T04:16:39.066Z,-4.33
2022-12-13T04:19:05.838Z,-4.37
2022-12-13T04:21:32.575Z,-4.59
2022-12-13T04:24:00.908Z,-4.68
2022-12-13T04:26:28.669Z,-4.80
2022-12-13T04:28:56.794Z,-4.70
2022-12-13T04:31:23.589Z,-4.72
2022-12-13T04:36:30.965Z,-4.42
2022-12-13T04:39:00.924Z,-4.50
2022-12-13T04:41:34.503Z,-4.72
2022-12-13T04:44:02.030Z,-4.62
2022-12-13T04:46:28.694Z,-4.55
2022-12-13T04:51:26.844Z,-4.53
2022-12-13T04:53:53.474Z,-4.47
2022-12-13T04:56:20.682Z,-4.64
2022-12-13T04:58:47.400Z,-4.83
2022-12-13T05:01:14.279Z,-4.76
2022-12-13T05:03:41.022Z,-4.70
2022-12-13T05:06:26.397Z,-4.94
2022-12-13T05:08:54.615Z,-4.71
2022-12-13T05:11:23.013Z,-4.68
2022-12-13T05:13:50.338Z,-4.84
2022-12-13T05:16:17.193Z,-4.80
2022-12-13T05:18:51.458Z,-4.75
2022-12-13T05:21:18.091Z,-4.70
2022-12-13T05:23:44.702Z,-4.71
2022-12-13T05:26:11.358Z,-4.90
2022-12-13T05:28:37.995Z,-3.49
2022-12-13T05:31:23.015Z,-4.48
2022-12-13T05:33:52.030Z,-4.75
2022-12-13T05:38:50.204Z,-4.70
2022-12-13T05:41:19.775Z,-4.83
2022-12-13T05:43:47.048Z,-5.13
2022-12-13T05:46:14.284Z,-5.25
2022-12-13T05:48:41.972Z,-5.20
2022-12-13T05:51:11.811Z,-5.23
2022-12-13T05:53:42.743Z,-5.16
2022-12-13T05:56:11.403Z,-4.98
2022-12-13T05:58:40.792Z,-5.03
2022-12-13T06:01:10.956Z,-5.28
2022-12-13T06:03:37.744Z,-5.36
2022-12-13T06:06:06.125Z,-5.18
2022-12-13T06:08:33.051Z,-5.37
2022-12-13T06:11:10.043Z,-5.12
2022-12-13T06:13:42.856Z,-5.16
2022-12-13T06:16:23.158Z,-5.19
2022-12-13T06:18:55.856Z,-5.11
2022-12-13T06:21:28.186Z,-5.12
2022-12-13T06:23:57.860Z,-4.77
2022-12-13T06:26:24.628Z,-4.86
2022-12-13T06:28:51.288Z,-5.00
2022-12-13T06:31:20.935Z,-4.87
2022-12-13T06:33:47.673Z,-4.85
2022-12-13T06:36:14.350Z,-4.70
2022-12-13T06:38:43.604Z,-4.70
2022-12-13T06:41:17.112Z,-4.77
2022-12-13T06:43:45.581Z,-4.80
2022-12-13T06:46:12.462Z,-5.28
2022-12-13T06:48:40.841Z,-5.24
2022-12-13T06:51:08.969Z,-5.16
2022-12-13T06:53:37.627Z,-5.43
2022-12-13T06:56:10.018Z,-5.29
2022-12-13T06:58:37.382Z,-5.39
2022-12-13T07:01:14.642Z,-5.26
2022-12-13T07:03:42.648Z,-5.41
2022-12-13T07:06:19.769Z,-5.47
2022-12-13T07:08:55.971Z,-5.17
2022-12-13T07:11:27.973Z,-5.31
2022-12-13T07:13:55.422Z,-5.24
2022-12-13T07:16:23.171Z,-5.14
2022-12-13T07:19:00.658Z,-5.07
2022-12-13T07:21:29.707Z,-5.11
2022-12-13T07:23:56.497Z,-4.89
2022-12-13T07:26:23.891Z,-4.85
2022-12-13T07:28:55.112Z,-4.84
2022-12-13T07:31:24.666Z,-4.84
2022-12-13T07:33:51.679Z,-5.05
2022-12-13T07:36:21.566Z,-5.22
2022-12-13T07:38:53.144Z,-5.11
2022-12-13T07:41:23.527Z,-5.20
2022-12-13T07:46:32.998Z,-4.97
2022-12-13T07:49:02.847Z,-5.13
2022-12-13T07:51:29.500Z,-5.02
2022-12-13T07:53:56.052Z,-5.08
2022-12-13T07:56:22.687Z,-5.33
2022-12-13T07:58:49.382Z,-5.14
2022-12-13T08:01:15.997Z,-4.71
2022-12-13T08:03:42.601Z,-4.80
2022-12-13T08:06:11.546Z,-4.87
2022-12-13T08:08:39.469Z,-4.83
2022-12-13T08:11:08.755Z,-4.49
2022-12-13T08:13:36.537Z,-4.56
2022-12-13T08:16:28.242Z,-4.29
2022-12-13T08:19:03.313Z,-4.11
2022-12-13T08:24:15.658Z,-4.12
2022-12-13T08:26:42.554Z,-4.08
2022-12-13T08:29:09.424Z,-3.87
2022-12-13T08:31:36.230Z,-3.90
2022-12-13T08:34:02.891Z,-3.96
2022-12-13T08:36:29.542Z,-3.84
2022-12-13T08:38:57.261Z,-3.86
2022-12-13T08:44:03.631Z,-3.62
2022-12-13T08:46:30.284Z,-3.73
2022-12-13T08:48:57.019Z,-3.78
2022-12-13T08:51:29.521Z,-3.61
2022-12-13T08:54:10.272Z,-3.67
2022-12-13T08:56:38.258Z,-3.57
2022-12-13T08:59:05.174Z,-3.45
2022-12-13T09:01:32.218Z,-3.26
2022-12-13T09:03:58.871Z,-3.35
2022-12-13T09:06:25.473Z,-3.34
2022-12-13T09:08:54.957Z,-3.12
2022-12-13T09:11:35.018Z,-3.12
2022-12-13T09:14:05.071Z,-3.11
2022-12-13T09:16:35.756Z,-3.06
2022-12-13T09:19:25.505Z,-3.05
2022-12-13T09:21:51.022Z,-2.82
2022-12-13T09:24:24.045Z,-2.73
2022-12-13T09:26:57.206Z,-2.41
2022-12-13T09:29:24.443Z,-2.35
2022-12-13T09:31:53.374Z,-2.39
2022-12-13T09:34:20.487Z,-2.12
2022-12-13T09:36:47.239Z,-2.31
2022-12-13T09:39:13.863Z,-2.40
2022-12-13T09:41:44.381Z,-2.25
2022-12-13T09:44:31.561Z,-2.49
2022-12-13T09:47:03.671Z,-2.14
2022-12-13T09:49:43.497Z,-2.22
2022-12-13T09:52:22.732Z,-2.49
2022-12-13T09:54:53.972Z,-2.36
2022-12-13T09:57:32.002Z,-2.40
2022-12-13T10:00:03.001Z,-2.33
2022-12-13T10:02:33.676Z,-2.35
2022-12-13T10:05:34.065Z,-2.20
2022-12-13T10:08:13.895Z,-2.18
2022-12-13T10:10:40.774Z,-2.11
2022-12-13T10:13:20.412Z,-2.04
2022-12-13T10:16:43.891Z,-2.15
2022-12-13T10:19:41.239Z,-2.31
2022-12-13T10:22:16.496Z,-2.31
2022-12-13T10:24:53.767Z,-2.31
2022-12-13T10:27:46.007Z,-2.20
2022-12-13T10:30:27.952Z,-2.07
2022-12-13T10:32:58.700Z,-2.17
2022-12-13T10:35:26.843Z,-2.03
2022-12-13T10:37:55.094Z,-2.03
2022-12-13T10:40:34.518Z,-2.04
2022-12-13T10:43:21.805Z,-1.93
2022-12-13T10:46:24.990Z,-1.93
2022-12-13T10:48:52.661Z,-2.00
2022-12-13T10:51:21.990Z,-1.82
2022-12-13T10:53:53.614Z,-1.86
2022-12-13T10:56:23.802Z,-1.63
2022-12-13T10:59:23.609Z,-1.61
2022-12-13T11:01:50.415Z,-1.52
2022-12-13T11:04:28.473Z,-1.50
2022-12-13T11:06:56.439Z,-1.55
2022-12-13T11:09:39.008Z,-1.49
2022-12-13T11:12:19.813Z,-1.37
2022-12-13T11:15:07.595Z,-1.36
2022-12-13T11:17:45.783Z,-1.20
2022-12-13T11:20:23.720Z,-1.23
2022-12-13T11:23:01.542Z,-1.14
2022-12-13T11:25:38.705Z,-0.95
2022-12-13T11:28:27.093Z,-0.95
2022-12-13T11:31:16.388Z,-0.99
2022-12-13T11:33:52.085Z,-1.00
2022-12-13T11:36:30.107Z,-1.09
2022-12-13T11:39:23.442Z,-1.01
2022-12-13T11:41:55.537Z,-0.94
2022-12-13T11:44:29.672Z,-0.88
2022-12-13T11:46:59.972Z,-0.86
2022-12-13T11:52:17.809Z,-0.74
2022-12-13T11:55:20.277Z,-0.70
2022-12-13T11:57:51.971Z,-0.49
2022-12-13T12:00:34.029Z,-0.54
2022-12-13T12:03:20.619Z,-0.39
2022-12-13T12:06:14.821Z,-0.48
2022-12-13T12:08:41.378Z,-0.49
2022-12-13T12:14:22.349Z,-0.23
2022-12-13T12:16:55.310Z,-0.18
2022-12-13T12:19:37.838Z,-0.18
2022-12-13T12:22:35.054Z,-0.18
2022-12-13T12:25:35.531Z,-0.18
2022-12-13T12:28:29.444Z,-0.21
2022-12-13T12:31:25.585Z,-0.12
2022-12-13T12:34:15.467Z,0.06
2022-12-13T12:36:58.633Z,0.02
2022-12-13T12:39:54.149Z,0.02
2022-12-13T12:42:26.816Z,0.00
2022-12-13T12:45:27.136Z,0.04
2022-12-13T12:51:00.624Z,0.11
2022-12-13T12:53:41.945Z,0.13
2022-12-13T12:56:19.983Z,0.19
2022-12-13T12:59:16.021Z,0.17
2022-12-13T13:02:12.286Z,0.17
2022-12-13T13:04:46.415Z,0.21
2022-12-13T13:07:32.110Z,0.16
2022-12-13T13:10:16.773Z,0.04
2022-12-13T13:13:32.947Z,0.13
2022-12-13T13:15:41.026Z,0.13
2022-12-13T13:18:46.318Z,0.18
2022-12-13T13:21:27.740Z,0.15
2022-12-13T13:24:09.328Z,0.25
2022-12-13T13:29:28.447Z,0.27
2022-12-13T13:32:01.913Z,0.35
2022-12-13T13:34:40.930Z,0.37
2022-12-13T13:37:23.272Z,0.35
2022-12-13T13:39:52.778Z,0.35
2022-12-13T13:42:21.849Z,0.29
2022-12-13T13:44:48.480Z,0.28
2022-12-13T13:47:21.112Z,0.28
2022-12-13T13:50:06.100Z,0.25
2022-12-13T13:52:54.203Z,0.22
2022-12-13T13:55:48.758Z,0.30
2022-12-13T13:58:44.941Z,0.24
2022-12-13T14:01:35.645Z,0.21
2022-12-13T14:04:20.891Z,0.27
2022-12-13T14:06:53.166Z,0.29
2022-12-13T14:10:05.382Z,0.24
2022-12-13T14:12:55.586Z,0.30
2022-12-13T14:16:20.440Z,0.29
2022-12-13T14:18:51.774Z,0.28
2022-12-13T14:21:27.129Z,0.23
2022-12-13T14:23:53.821Z,0.22
2022-12-13T14:26:46.587Z,0.15
2022-12-13T14:29:28.386Z,0.16
2022-12-13T14:31:55.733Z,0.20
2022-12-13T14:34:25.518Z,0.10
2022-12-13T14:37:22.795Z,0.25
2022-12-13T14:39:49.514Z,0.16
2022-12-13T14:42:24.803Z,0.11
2022-12-13T14:44:52.620Z,0.02
2022-12-13T14:49:58.829Z,0.14
2022-12-13T14:55:04.754Z,0.22
2022-12-13T14:57:33.503Z,0.05
2022-12-13T15:00:02.513Z,-0.01
2022-12-13T15:02:32.321Z,-0.03
2022-12-13T15:05:01.533Z,-0.09
2022-12-13T15:07:41.485Z,-0.13
2022-12-13T15:10:22.825Z,-0.03
2022-12-13T15:12:52.298Z,0.04
2022-12-13T15:15:30.094Z,-0.07
2022-12-13T15:18:19.708Z,-0.10
2022-12-13T15:20:48.595Z,-0.35
2022-12-13T15:23:27.237Z,-0.16
2022-12-13T15:26:28.034Z,-0.06
2022-12-13T15:29:09.544Z,-0.12
2022-12-13T15:31:38.672Z,-0.13
2022-12-13T15:34:29.079Z,-0.29
2022-12-13T15:37:03.233Z,-0.29
2022-12-13T15:39:31.452Z,-0.21
2022-12-13T15:41:59.798Z,-0.30
2022-12-13T15:44:44.941Z,-0.33
2022-12-13T15:47:28.913Z,-0.19
2022-12-13T15:50:01.456Z,-0.20
2022-12-13T15:52:33.211Z,-0.17
2022-12-13T15:55:05.780Z,-0.22
2022-12-13T15:57:34.702Z,-0.18
2022-12-13T16:00:07.529Z,-0.25
2022-12-13T16:02:34.986Z,-0.31
2022-12-13T16:05:10.430Z,-0.45
2022-12-13T16:07:39.999Z,-0.48
2022-12-13T16:10:08.957Z,-0.63
2022-12-13T16:12:49.161Z,-0.68
2022-12-13T16:15:29.543Z,-0.65
2022-12-13T16:18:27.582Z,-0.65
2022-12-13T16:20:55.122Z,-0.65
2022-12-13T16:23:27.524Z,-0.68
2022-12-13T16:25:54.795Z,-0.62
2022-12-13T16:28:26.190Z,-0.52
2022-12-13T16:30:53.144Z,-0.42
2022-12-13T16:33:26.829Z,-0.45
2022-12-13T16:35:55.259Z,-0.58
2022-12-13T16:38:26.090Z,-0.62
2022-12-13T16:40:56.234Z,-0.75
2022-12-13T16:43:32.848Z,-0.74
2022-12-13T16:47:10.299Z,-0.81
2022-12-13T16:48:51.943Z,-0.79
2022-12-13T16:51:22.313Z,-0.79
2022-12-13T16:53:49.339Z,-0.90
2022-12-13T16:56:21.751Z,-0.87
2022-12-13T16:58:50.528Z,-0.89
2022-12-13T17:01:20.793Z,-0.91
2022-12-13T17:03:48.107Z,-0.88
2022-12-13T17:06:19.568Z,-0.96
2022-12-13T17:08:48.772Z,-0.96
2022-12-13T17:11:18.280Z,-0.94
2022-12-13T17:13:47.784Z,-1.03
2022-12-13T17:16:14.555Z,-1.13
2022-12-13T17:18:41.362Z,-1.14
2022-12-13T17:21:10.909Z,-1.20
2022-12-13T17:23:37.630Z,-1.30
2022-12-13T17:26:09.803Z,-1.26
2022-12-13T17:28:37.020Z,-1.20
2022-12-13T17:31:12.337Z,-1.30
2022-12-13T17:33:40.387Z,-1.29
2022-12-13T17:36:08.709Z,-1.42
2022-12-13T17:38:35.933Z,-1.41
2022-12-13T17:41:03.236Z,-1.46
2022-12-13T17:43:34.735Z,-1.53
2022-12-13T17:46:06.899Z,-1.22
2022-12-13T17:48:41.302Z,-1.31
2022-12-13T17:51:12.877Z,-1.52
2022-12-13T17:53:41.401Z,-1.52
2022-12-13T17:58:47.426Z,-1.67
2022-12-13T18:01:23.126Z,-1.74
2022-12-13T18:06:27.268Z,-1.70
2022-12-13T18:08:54.203Z,-1.64
2022-12-13T18:11:32.849Z,-1.60
2022-12-13T18:14:01.198Z,-1.57
2022-12-13T18:16:35.777Z,-1.27
2022-12-13T18:19:06.258Z,-1.49
2022-12-13T18:21:33.912Z,-1.43
2022-12-13T18:24:00.842Z,-1.60
2022-12-13T18:26:27.521Z,-1.56
2022-12-13T18:28:54.342Z,-1.57
2022-12-13T18:31:24.147Z,-1.60
2022-12-13T18:33:53.257Z,-1.78
2022-12-13T18:36:21.503Z,-1.61
2022-12-13T18:41:25.113Z,-1.56
2022-12-13T18:43:59.196Z,-1.57
2022-12-13T18:46:26.455Z,-1.64
2022-12-13T18:48:53.049Z,-1.56
2022-12-13T18:53:53.335Z,-1.57
2022-12-13T18:56:20.126Z,-1.43
2022-12-13T18:58:50.709Z,-1.50
2022-12-13T19:01:18.818Z,-1.40
2022-12-13T19:03:47.664Z,-1.26
2022-12-13T19:06:19.943Z,-1.32
2022-12-13T19:08:51.693Z,-1.37
2022-12-13T19:11:18.964Z,-1.42
2022-12-13T19:13:46.399Z,-1.47
2022-12-13T19:16:16.375Z,-1.53
2022-12-13T19:18:43.124Z,-1.49
2022-12-13T19:23:57.789Z,-1.55
2022-12-13T19:26:25.429Z,-1.63
2022-12-13T19:28:54.744Z,-1.73
2022-12-13T19:31:24.268Z,-1.83
2022-12-13T19:33:56.448Z,-1.94
2022-12-13T19:36:23.312Z,-1.86
2022-12-13T19:38:50.192Z,-1.79
2022-12-13T19:41:19.132Z,-1.80
2022-12-13T19:43:52.304Z,-1.74
2022-12-13T19:46:19.761Z,-1.68
2022-12-13T19:48:46.470Z,-1.66
2022-12-13T19:51:13.108Z,-1.69
2022-12-13T19:53:40.155Z,-1.69
2022-12-13T19:56:11.606Z,-1.74
2022-12-13T19:58:39.545Z,-1.80
2022-12-13T20:01:07.720Z,-1.76
2022-12-13T20:03:39.901Z,-1.73
2022-12-13T20:06:08.388Z,-1.84
2022-12-13T20:08:35.142Z,-1.84
2022-12-13T20:11:22.506Z,-1.67
2022-12-13T20:13:52.857Z,-1.68
2022-12-13T20:16:22.689Z,-1.71
2022-12-13T20:18:57.759Z,-1.74
2022-12-13T20:21:24.933Z,-1.76
2022-12-13T20:23:51.633Z,-1.87
2022-12-13T20:26:23.601Z,-1.77
2022-12-13T20:28:51.002Z,-1.78
2022-12-13T20:31:20.788Z,-1.78
2022-12-13T20:33:48.237Z,-1.76
2022-12-13T20:36:24.691Z,-1.84
2022-12-13T20:38:57.444Z,-1.75
2022-12-13T20:41:29.648Z,-1.82
2022-12-13T20:43:59.732Z,-1.82
2022-12-13T20:46:27.723Z,-1.63
2022-12-13T20:48:56.377Z,-1.61
2022-12-13T20:51:26.048Z,-1.71
2022-12-13T20:53:53.354Z,-1.74
2022-12-13T20:56:25.555Z,-1.66
2022-12-13T20:58:52.385Z,-1.67
2022-12-13T21:01:24.888Z,-1.75
2022-12-13T21:03:57.102Z,-1.86
2022-12-13T21:06:23.824Z,-1.86
2022-12-13T21:08:54.122Z,-1.71
2022-12-13T21:11:26.820Z,-1.82
2022-12-13T21:13:54.647Z,-1.93
2022-12-13T21:16:22.597Z,-1.86
2022-12-13T21:18:49.458Z,-2.01
2022-12-13T21:21:16.208Z,-1.89
2022-12-13T21:23:42.856Z,-1.81
2022-12-13T21:26:09.779Z,-1.97
2022-12-13T21:28:36.483Z,-1.86
2022-12-13T21:31:13.024Z,-1.89
2022-12-13T21:33:40.116Z,-1.85
2022-12-13T21:36:16.787Z,-1.81
2022-12-13T21:38:44.207Z,-1.86
2022-12-13T21:41:11.848Z,-2.06
2022-12-13T21:43:39.605Z,-2.01
2022-12-13T21:46:09.011Z,-1.98
2022-12-13T21:48:37.522Z,-1.98
2022-12-13T21:51:05.059Z,-1.91
2022-12-13T21:53:31.835Z,-1.88
2022-12-13T21:56:17.232Z,-1.98
2022-12-13T21:59:03.081Z,-1.82
2022-12-13T22:01:49.697Z,-1.80
2022-12-13T22:04:18.154Z,-1.81
2022-12-13T22:06:45.116Z,-1.79
2022-12-13T22:09:12.212Z,-1.86
2022-12-13T22:11:39.343Z,-1.94
2022-12-13T22:14:06.160Z,-1.91
2022-12-13T22:16:32.948Z,-1.89
2022-12-13T22:18:59.587Z,-1.79
2022-12-13T22:21:26.229Z,-1.84
2022-12-13T22:23:54.173Z,-1.87
2022-12-13T22:26:22.540Z,-1.76
2022-12-13T22:28:49.978Z,-1.75
2022-12-13T22:31:17.649Z,-1.75
2022-12-13T22:33:44.445Z,-1.69
2022-12-13T22:36:11.260Z,-1.68
2022-12-13T22:38:38.022Z,-1.75
2022-12-13T22:41:05.763Z,-1.74
2022-12-13T22:43:36.304Z,-1.85
2022-12-13T22:46:08.512Z,-1.68
2022-12-13T22:48:35.377Z,-1.67
2022-12-13T22:51:03.812Z,-1.67
2022-12-13T22:53:31.449Z,-1.75
2022-12-13T22:56:11.667Z,-1.31
2022-12-13T22:58:39.378Z,-1.30
2022-12-13T23:01:10.240Z,-1.57
2022-12-13T23:03:38.300Z,-1.66
2022-12-13T23:06:09.949Z,-1.51
2022-12-13T23:08:43.159Z,-1.55
2022-12-13T23:11:30.360Z,-1.63
2022-12-13T23:13:58.886Z,-1.61
2022-12-13T23:16:27.834Z,-1.50
2022-12-13T23:19:16.869Z,-1.52
2022-12-13T23:21:42.837Z,-1.59
2022-12-13T23:24:15.858Z,-1.61
2022-12-13T23:26:42.559Z,-1.60
2022-12-13T23:29:09.865Z,-1.56
2022-12-13T23:31:39.772Z,-1.58
2022-12-13T23:34:07.255Z,-1.64
2022-12-13T23:36:34.458Z,-1.53
2022-12-13T23:39:02.914Z,-1.52
2022-12-13T23:41:33.766Z,-1.45
2022-12-13T23:44:01.176Z,-1.60
2022-12-13T23:46:33.237Z,-1.63
2022-12-13T23:49:01.189Z,-1.54
2022-12-13T23:51:28.522Z,-1.38
2022-12-13T23:53:55.367Z,-1.35
2022-12-13T23:56:23.572Z,-1.50
2022-12-13T23:58:50.401Z,-1.48
